sensor_id;sensor_type;location;lat;lon;timestamp;temperature;humidity
22974;DHT22;11653;50.848;4.584;2024-03-02T00:02:24;8.50;99.90
22974;DHT22;11653;50.848;4.584;2024-03-02T00:04:51;8.30;99.90
22974;DHT22;11653;50.848;4.584;2024-03-02T00:07:17;8.30;99.90
22974;DHT22;11653;50.848;4.584;2024-03-02T00:09:43;8.50;99.90
22974;DHT22;11653;50.848;4.584;2024-03-02T00:12:11;8.40;99.90
22974;DHT22;11653;50.848;4.584;2024-03-02T00:14:40;8.40;99.90
22974;DHT22;11653;50.848;4.584;2024-03-02T00:17:13;8.40;99.90
22974;DHT22;11653;50.848;4.584;2024-03-02T00:19:44;8.40;99.90
22974;DHT22;11653;50.848;4.584;2024-03-02T00:22:10;8.40;99.90
22974;DHT22;11653;50.848;4.584;2024-03-02T00:24:36;8.50;99.90
22974;DHT22;11653;50.848;4.584;2024-03-02T00:27:04;8.30;99.90
22974;DHT22;11653;50.848;4.584;2024-03-02T00:29:30;8.20;99.90
22974;DHT22;11653;50.848;4.584;2024-03-02T00:31:57;8.20;99.90
22974;DHT22;11653;50.848;4.584;2024-03-02T00:34:23;8.30;99.90
22974;DHT22;11653;50.848;4.584;2024-03-02T00:36:49;8.30;99.90
22974;DHT22;11653;50.848;4.584;2024-03-02T00:39:15;8.30;99.90
22974;DHT22;11653;50.848;4.584;2024-03-02T00:41:42;8.30;99.90
22974;DHT22;11653;50.848;4.584;2024-03-02T00:44:12;8.20;99.90
22974;DHT22;11653;50.848;4.584;2024-03-02T00:46:40;8.30;99.90
22974;DHT22;11653;50.848;4.584;2024-03-02T00:49:21;8.20;99.90
22974;DHT22;11653;50.848;4.584;2024-03-02T00:51:49;8.20;99.90
22974;DHT22;11653;50.848;4.584;2024-03-02T00:54:15;8.10;99.90
22974;DHT22;11653;50.848;4.584;2024-03-02T00:56:44;8.20;99.90
22974;DHT22;11653;50.848;4.584;2024-03-02T00:59:10;8.20;99.90
22974;DHT22;11653;50.848;4.584;2024-03-02T01:01:36;8.20;99.90
22974;DHT22;11653;50.848;4.584;2024-03-02T01:04:03;8.10;99.90
22974;DHT22;11653;50.848;4.584;2024-03-02T01:06:29;8.10;99.90
22974;DHT22;11653;50.848;4.584;2024-03-02T01:08:55;8.10;99.90
22974;DHT22;11653;50.848;4.584;2024-03-02T01:11:21;8.10;99.90
22974;DHT22;11653;50.848;4.584;2024-03-02T01:13:50;8.20;99.90
22974;DHT22;11653;50.848;4.584;2024-03-02T01:16:15;8.20;99.90
22974;DHT22;11653;50.848;4.584;2024-03-02T01:18:41;8.20;99.90
22974;DHT22;11653;50.848;4.584;2024-03-02T01:21:08;8.30;99.90
22974;DHT22;11653;50.848;4.584;2024-03-02T01:23:33;8.20;99.90
22974;DHT22;11653;50.848;4.584;2024-03-02T01:25:59;8.20;99.90
22974;DHT22;11653;50.848;4.584;2024-03-02T01:28:25;8.10;99.90
22974;DHT22;11653;50.848;4.584;2024-03-02T01:30:50;8.00;99.90
22974;DHT22;11653;50.848;4.584;2024-03-02T01:33:20;8.10;99.90
22974;DHT22;11653;50.848;4.584;2024-03-02T01:35:46;8.10;99.90
22974;DHT22;11653;50.848;4.584;2024-03-02T01:38:12;8.00;99.90
22974;DHT22;11653;50.848;4.584;2024-03-02T01:40:38;8.10;99.90
22974;DHT22;11653;50.848;4.584;2024-03-02T01:43:07;8.10;99.90
22974;DHT22;11653;50.848;4.584;2024-03-02T01:45:33;8.10;99.90
22974;DHT22;11653;50.848;4.584;2024-03-02T01:48:00;8.10;99.90
22974;DHT22;11653;50.848;4.584;2024-03-02T01:50:27;8.10;99.90
22974;DHT22;11653;50.848;4.584;2024-03-02T01:52:55;8.20;99.90
22974;DHT22;11653;50.848;4.584;2024-03-02T01:55:21;8.00;99.90
22974;DHT22;11653;50.848;4.584;2024-03-02T01:57:47;8.00;99.90
22974;DHT22;11653;50.848;4.584;2024-03-02T02:00:14;8.00;99.90
22974;DHT22;11653;50.848;4.584;2024-03-02T02:02:40;8.10;99.90
22974;DHT22;11653;50.848;4.584;2024-03-02T02:05:06;8.10;99.90
22974;DHT22;11653;50.848;4.584;2024-03-02T02:07:31;8.10;99.90
22974;DHT22;11653;50.848;4.584;2024-03-02T02:09:57;8.20;99.90
22974;DHT22;11653;50.848;4.584;2024-03-02T02:12:23;8.10;99.90
22974;DHT22;11653;50.848;4.584;2024-03-02T02:14:49;8.20;99.90
22974;DHT22;11653;50.848;4.584;2024-03-02T02:17:16;8.20;99.90
22974;DHT22;11653;50.848;4.584;2024-03-02T02:19:42;8.20;99.90
22974;DHT22;11653;50.848;4.584;2024-03-02T02:22:11;8.20;99.90
22974;DHT22;11653;50.848;4.584;2024-03-02T02:24:42;8.10;99.90
22974;DHT22;11653;50.848;4.584;2024-03-02T02:27:09;8.10;99.90
22974;DHT22;11653;50.848;4.584;2024-03-02T02:29:35;8.10;99.90
22974;DHT22;11653;50.848;4.584;2024-03-02T02:32:01;8.10;99.90
22974;DHT22;11653;50.848;4.584;2024-03-02T02:34:27;8.00;99.90
22974;DHT22;11653;50.848;4.584;2024-03-02T02:36:52;8.00;99.90
22974;DHT22;11653;50.848;4.584;2024-03-02T02:39:20;8.00;99.90
22974;DHT22;11653;50.848;4.584;2024-03-02T02:41:46;8.10;99.90
22974;DHT22;11653;50.848;4.584;2024-03-02T02:44:12;8.00;99.90
22974;DHT22;11653;50.848;4.584;2024-03-02T02:46:39;8.00;99.90
22974;DHT22;11653;50.848;4.584;2024-03-02T02:49:04;8.10;99.90
22974;DHT22;11653;50.848;4.584;2024-03-02T02:51:30;8.10;99.90
22974;DHT22;11653;50.848;4.584;2024-03-02T02:53:56;8.10;99.90
22974;DHT22;11653;50.848;4.584;2024-03-02T02:56:22;8.10;99.90
22974;DHT22;11653;50.848;4.584;2024-03-02T02:58:47;8.10;99.90
22974;DHT22;11653;50.848;4.584;2024-03-02T03:01:14;8.10;99.90
22974;DHT22;11653;50.848;4.584;2024-03-02T03:03:40;8.10;99.90
22974;DHT22;11653;50.848;4.584;2024-03-02T03:06:06;8.20;99.90
22974;DHT22;11653;50.848;4.584;2024-03-02T03:08:32;8.20;99.90
22974;DHT22;11653;50.848;4.584;2024-03-02T03:10:57;8.10;99.90
22974;DHT22;11653;50.848;4.584;2024-03-02T03:13:23;8.00;99.90
22974;DHT22;11653;50.848;4.584;2024-03-02T03:15:48;7.80;99.90
22974;DHT22;11653;50.848;4.584;2024-03-02T03:18:14;7.60;99.90
22974;DHT22;11653;50.848;4.584;2024-03-02T03:20:40;7.70;99.90
22974;DHT22;11653;50.848;4.584;2024-03-02T03:23:05;7.60;99.90
22974;DHT22;11653;50.848;4.584;2024-03-02T03:25:31;7.60;99.90
22974;DHT22;11653;50.848;4.584;2024-03-02T03:27:57;7.60;99.90
22974;DHT22;11653;50.848;4.584;2024-03-02T03:30:23;7.60;99.90
22974;DHT22;11653;50.848;4.584;2024-03-02T03:32:48;7.60;99.90
22974;DHT22;11653;50.848;4.584;2024-03-02T03:35:14;7.60;99.90
22974;DHT22;11653;50.848;4.584;2024-03-02T03:37:41;7.50;99.90
22974;DHT22;11653;50.848;4.584;2024-03-02T03:40:07;7.40;99.90
22974;DHT22;11653;50.848;4.584;2024-03-02T03:42:38;7.30;99.90
22974;DHT22;11653;50.848;4.584;2024-03-02T03:45:05;7.40;99.90
22974;DHT22;11653;50.848;4.584;2024-03-02T03:47:31;7.30;99.90
22974;DHT22;11653;50.848;4.584;2024-03-02T03:49:57;7.20;99.90
22974;DHT22;11653;50.848;4.584;2024-03-02T03:52:23;7.20;99.90
22974;DHT22;11653;50.848;4.584;2024-03-02T03:54:48;7.20;99.90
22974;DHT22;11653;50.848;4.584;2024-03-02T03:57:14;7.20;99.90
22974;DHT22;11653;50.848;4.584;2024-03-02T03:59:40;7.30;99.90
22974;DHT22;11653;50.848;4.584;2024-03-02T04:02:05;7.20;99.90
22974;DHT22;11653;50.848;4.584;2024-03-02T04:04:31;7.30;99.90
22974;DHT22;11653;50.848;4.584;2024-03-02T04:06:56;7.30;99.90
22974;DHT22;11653;50.848;4.584;2024-03-02T04:09:22;7.30;99.90
22974;DHT22;11653;50.848;4.584;2024-03-02T04:11:48;7.30;99.90
22974;DHT22;11653;50.848;4.584;2024-03-02T04:14:13;7.30;99.90
22974;DHT22;11653;50.848;4.584;2024-03-02T04:16:39;7.30;99.90
22974;DHT22;11653;50.848;4.584;2024-03-02T04:19:05;7.30;99.90
22974;DHT22;11653;50.848;4.584;2024-03-02T04:21:31;7.20;99.90
22974;DHT22;11653;50.848;4.584;2024-03-02T04:23:57;7.10;99.90
22974;DHT22;11653;50.848;4.584;2024-03-02T04:26:25;6.90;99.90
22974;DHT22;11653;50.848;4.584;2024-03-02T04:28:51;7.00;99.90
22974;DHT22;11653;50.848;4.584;2024-03-02T04:31:17;7.10;99.90
22974;DHT22;11653;50.848;4.584;2024-03-02T04:33:43;7.10;99.90
22974;DHT22;11653;50.848;4.584;2024-03-02T04:36:08;7.10;99.90
22974;DHT22;11653;50.848;4.584;2024-03-02T04:38:38;7.20;99.90
22974;DHT22;11653;50.848;4.584;2024-03-02T04:41:05;7.20;99.90
22974;DHT22;11653;50.848;4.584;2024-03-02T04:43:34;7.30;99.90
22974;DHT22;11653;50.848;4.584;2024-03-02T04:46:00;7.30;99.90
22974;DHT22;11653;50.848;4.584;2024-03-02T04:48:26;7.40;99.90
22974;DHT22;11653;50.848;4.584;2024-03-02T04:50:51;7.40;99.90
22974;DHT22;11653;50.848;4.584;2024-03-02T04:53:17;7.20;99.90
22974;DHT22;11653;50.848;4.584;2024-03-02T04:55:43;7.20;99.90
22974;DHT22;11653;50.848;4.584;2024-03-02T04:58:08;7.20;99.90
22974;DHT22;11653;50.848;4.584;2024-03-02T05:00:34;7.30;99.90
22974;DHT22;11653;50.848;4.584;2024-03-02T05:03:01;7.20;99.90
22974;DHT22;11653;50.848;4.584;2024-03-02T05:05:27;7.20;99.90
22974;DHT22;11653;50.848;4.584;2024-03-02T05:07:52;7.20;99.90
22974;DHT22;11653;50.848;4.584;2024-03-02T05:10:18;7.30;99.90
22974;DHT22;11653;50.848;4.584;2024-03-02T05:12:44;7.30;99.90
22974;DHT22;11653;50.848;4.584;2024-03-02T05:15:11;7.10;99.90
22974;DHT22;11653;50.848;4.584;2024-03-02T05:17:41;7.10;99.90
22974;DHT22;11653;50.848;4.584;2024-03-02T05:20:10;6.90;99.90
22974;DHT22;11653;50.848;4.584;2024-03-02T05:22:37;7.00;99.90
22974;DHT22;11653;50.848;4.584;2024-03-02T05:25:03;6.90;99.90
22974;DHT22;11653;50.848;4.584;2024-03-02T05:27:29;6.80;99.90
22974;DHT22;11653;50.848;4.584;2024-03-02T05:29:55;6.80;99.90
22974;DHT22;11653;50.848;4.584;2024-03-02T05:32:21;6.90;99.90
22974;DHT22;11653;50.848;4.584;2024-03-02T05:34:47;6.90;99.90
22974;DHT22;11653;50.848;4.584;2024-03-02T05:37:12;6.90;99.90
22974;DHT22;11653;50.848;4.584;2024-03-02T05:39:38;6.90;99.90
22974;DHT22;11653;50.848;4.584;2024-03-02T05:42:04;7.00;99.90
22974;DHT22;11653;50.848;4.584;2024-03-02T05:44:30;7.00;99.90
22974;DHT22;11653;50.848;4.584;2024-03-02T05:46:56;7.00;99.90
22974;DHT22;11653;50.848;4.584;2024-03-02T05:49:21;7.00;99.90
22974;DHT22;11653;50.848;4.584;2024-03-02T05:51:47;6.80;99.90
22974;DHT22;11653;50.848;4.584;2024-03-02T05:54:13;6.90;99.90
22974;DHT22;11653;50.848;4.584;2024-03-02T05:56:39;6.90;99.90
22974;DHT22;11653;50.848;4.584;2024-03-02T05:59:04;6.90;99.90
22974;DHT22;11653;50.848;4.584;2024-03-02T06:01:43;7.00;99.90
22974;DHT22;11653;50.848;4.584;2024-03-02T06:04:10;6.70;99.90
22974;DHT22;11653;50.848;4.584;2024-03-02T06:06:39;6.80;99.90
22974;DHT22;11653;50.848;4.584;2024-03-02T06:09:05;6.80;99.90
22974;DHT22;11653;50.848;4.584;2024-03-02T06:11:35;6.80;99.90
22974;DHT22;11653;50.848;4.584;2024-03-02T06:14:01;6.70;99.90
22974;DHT22;11653;50.848;4.584;2024-03-02T06:16:27;6.80;99.90
22974;DHT22;11653;50.848;4.584;2024-03-02T06:18:53;7.00;99.90
22974;DHT22;11653;50.848;4.584;2024-03-02T06:21:19;6.90;99.90
22974;DHT22;11653;50.848;4.584;2024-03-02T06:23:45;6.90;99.90
22974;DHT22;11653;50.848;4.584;2024-03-02T06:26:11;6.80;99.90
22974;DHT22;11653;50.848;4.584;2024-03-02T06:28:37;6.80;99.90
22974;DHT22;11653;50.848;4.584;2024-03-02T06:31:04;6.80;99.90
22974;DHT22;11653;50.848;4.584;2024-03-02T06:33:29;6.80;99.90
22974;DHT22;11653;50.848;4.584;2024-03-02T06:35:55;6.80;99.90
22974;DHT22;11653;50.848;4.584;2024-03-02T06:38:21;6.80;99.90
22974;DHT22;11653;50.848;4.584;2024-03-02T06:40:46;6.80;99.90
22974;DHT22;11653;50.848;4.584;2024-03-02T06:43:12;6.90;99.90
22974;DHT22;11653;50.848;4.584;2024-03-02T06:45:37;7.00;99.90
22974;DHT22;11653;50.848;4.584;2024-03-02T06:48:03;6.90;99.90
22974;DHT22;11653;50.848;4.584;2024-03-02T06:50:29;6.80;99.90
22974;DHT22;11653;50.848;4.584;2024-03-02T06:52:55;6.80;99.90
22974;DHT22;11653;50.848;4.584;2024-03-02T06:55:24;6.80;99.90
22974;DHT22;11653;50.848;4.584;2024-03-02T06:57:52;6.90;99.90
22974;DHT22;11653;50.848;4.584;2024-03-02T07:00:19;6.90;99.90
22974;DHT22;11653;50.848;4.584;2024-03-02T07:02:45;7.00;99.90
22974;DHT22;11653;50.848;4.584;2024-03-02T07:05:11;7.00;99.90
22974;DHT22;11653;50.848;4.584;2024-03-02T07:07:37;7.00;99.90
22974;DHT22;11653;50.848;4.584;2024-03-02T07:10:04;7.30;99.90
22974;DHT22;11653;50.848;4.584;2024-03-02T07:12:30;7.70;99.90
22974;DHT22;11653;50.848;4.584;2024-03-02T07:14:57;8.10;99.90
22974;DHT22;11653;50.848;4.584;2024-03-02T07:17:42;8.50;99.90
22974;DHT22;11653;50.848;4.584;2024-03-02T07:20:08;8.80;99.90
22974;DHT22;11653;50.848;4.584;2024-03-02T07:22:34;9.00;99.90
22974;DHT22;11653;50.848;4.584;2024-03-02T07:24:59;9.40;99.90
22974;DHT22;11653;50.848;4.584;2024-03-02T07:27:27;9.70;99.90
22974;DHT22;11653;50.848;4.584;2024-03-02T07:29:52;9.80;99.90
22974;DHT22;11653;50.848;4.584;2024-03-02T07:32:18;10.00;99.90
22974;DHT22;11653;50.848;4.584;2024-03-02T07:34:43;10.20;99.90
22974;DHT22;11653;50.848;4.584;2024-03-02T07:37:09;10.60;99.90
22974;DHT22;11653;50.848;4.584;2024-03-02T07:39:35;11.00;99.90
22974;DHT22;11653;50.848;4.584;2024-03-02T07:42:01;11.30;99.90
22974;DHT22;11653;50.848;4.584;2024-03-02T07:44:27;11.60;99.90
22974;DHT22;11653;50.848;4.584;2024-03-02T07:46:52;12.10;99.90
22974;DHT22;11653;50.848;4.584;2024-03-02T07:49:18;12.60;99.90
22974;DHT22;11653;50.848;4.584;2024-03-02T07:51:44;13.00;99.90
22974;DHT22;11653;50.848;4.584;2024-03-02T07:54:10;13.20;99.90
22974;DHT22;11653;50.848;4.584;2024-03-02T07:56:36;13.60;99.90
22974;DHT22;11653;50.848;4.584;2024-03-02T07:59:03;13.80;99.90
22974;DHT22;11653;50.848;4.584;2024-03-02T08:01:29;13.70;99.90
22974;DHT22;11653;50.848;4.584;2024-03-02T08:03:57;14.00;99.90
22974;DHT22;11653;50.848;4.584;2024-03-02T08:06:27;14.10;99.90
22974;DHT22;11653;50.848;4.584;2024-03-02T08:08:58;14.20;99.90
22974;DHT22;11653;50.848;4.584;2024-03-02T08:11:25;14.20;99.90
22974;DHT22;11653;50.848;4.584;2024-03-02T08:13:50;14.40;99.90
22974;DHT22;11653;50.848;4.584;2024-03-02T08:16:18;14.40;99.90
22974;DHT22;11653;50.848;4.584;2024-03-02T08:18:47;14.40;99.90
22974;DHT22;11653;50.848;4.584;2024-03-02T08:21:15;14.70;99.90
22974;DHT22;11653;50.848;4.584;2024-03-02T08:23:41;15.00;99.90
22974;DHT22;11653;50.848;4.584;2024-03-02T08:26:11;15.40;99.90
22974;DHT22;11653;50.848;4.584;2024-03-02T08:28:37;15.10;99.90
22974;DHT22;11653;50.848;4.584;2024-03-02T08:31:03;15.10;99.90
22974;DHT22;11653;50.848;4.584;2024-03-02T08:33:29;14.40;99.90
22974;DHT22;11653;50.848;4.584;2024-03-02T08:35:55;13.70;99.90
22974;DHT22;11653;50.848;4.584;2024-03-02T08:38:21;14.50;99.90
22974;DHT22;11653;50.848;4.584;2024-03-02T08:40:48;15.50;99.90
22974;DHT22;11653;50.848;4.584;2024-03-02T08:43:14;15.50;99.90
22974;DHT22;11653;50.848;4.584;2024-03-02T08:45:40;15.70;99.90
22974;DHT22;11653;50.848;4.584;2024-03-02T08:48:07;16.00;99.90
22974;DHT22;11653;50.848;4.584;2024-03-02T08:50:36;16.10;99.90
22974;DHT22;11653;50.848;4.584;2024-03-02T08:53:04;16.70;99.90
22974;DHT22;11653;50.848;4.584;2024-03-02T08:55:30;17.20;99.90
22974;DHT22;11653;50.848;4.584;2024-03-02T08:57:57;17.40;99.90
22974;DHT22;11653;50.848;4.584;2024-03-02T09:00:24;17.00;99.90
22974;DHT22;11653;50.848;4.584;2024-03-02T09:02:50;16.60;99.90
22974;DHT22;11653;50.848;4.584;2024-03-02T09:05:16;16.40;99.90
22974;DHT22;11653;50.848;4.584;2024-03-02T09:07:42;16.30;99.90
22974;DHT22;11653;50.848;4.584;2024-03-02T09:10:08;16.30;99.90
22974;DHT22;11653;50.848;4.584;2024-03-02T09:12:35;16.40;99.90
22974;DHT22;11653;50.848;4.584;2024-03-02T09:15:01;16.00;99.90
22974;DHT22;11653;50.848;4.584;2024-03-02T09:17:28;15.90;99.90
22974;DHT22;11653;50.848;4.584;2024-03-02T09:19:55;16.00;99.90
22974;DHT22;11653;50.848;4.584;2024-03-02T09:22:21;16.50;99.90
22974;DHT22;11653;50.848;4.584;2024-03-02T09:24:47;16.90;99.90
22974;DHT22;11653;50.848;4.584;2024-03-02T09:27:12;17.10;99.90
22974;DHT22;11653;50.848;4.584;2024-03-02T09:29:38;17.00;99.90
22974;DHT22;11653;50.848;4.584;2024-03-02T09:32:05;17.10;99.90
22974;DHT22;11653;50.848;4.584;2024-03-02T09:34:32;16.90;99.90
22974;DHT22;11653;50.848;4.584;2024-03-02T09:36:58;17.00;99.90
22974;DHT22;11653;50.848;4.584;2024-03-02T09:39:24;17.90;99.90
22974;DHT22;11653;50.848;4.584;2024-03-02T09:41:51;18.00;98.40
22974;DHT22;11653;50.848;4.584;2024-03-02T09:44:17;17.70;98.50
22974;DHT22;11653;50.848;4.584;2024-03-02T09:46:43;17.50;99.20
22974;DHT22;11653;50.848;4.584;2024-03-02T09:49:10;18.00;98.70
22974;DHT22;11653;50.848;4.584;2024-03-02T09:51:39;18.80;97.20
22974;DHT22;11653;50.848;4.584;2024-03-02T09:54:09;18.90;96.20
22974;DHT22;11653;50.848;4.584;2024-03-02T09:56:35;19.60;95.10
22974;DHT22;11653;50.848;4.584;2024-03-02T09:59:01;19.20;94.60
22974;DHT22;11653;50.848;4.584;2024-03-02T10:01:30;18.30;95.30
22974;DHT22;11653;50.848;4.584;2024-03-02T10:03:59;18.50;96.40
22974;DHT22;11653;50.848;4.584;2024-03-02T10:06:26;18.70;95.60
22974;DHT22;11653;50.848;4.584;2024-03-02T10:08:53;17.90;95.90
22974;DHT22;11653;50.848;4.584;2024-03-02T10:11:32;17.80;97.00
22974;DHT22;11653;50.848;4.584;2024-03-02T10:14:12;17.10;97.70
22974;DHT22;11653;50.848;4.584;2024-03-02T10:16:42;17.30;98.50
22974;DHT22;11653;50.848;4.584;2024-03-02T10:19:24;17.70;97.80
22974;DHT22;11653;50.848;4.584;2024-03-02T10:21:53;17.80;97.80
22974;DHT22;11653;50.848;4.584;2024-03-02T10:24:20;17.90;97.70
22974;DHT22;11653;50.848;4.584;2024-03-02T10:26:46;18.10;96.90
22974;DHT22;11653;50.848;4.584;2024-03-02T10:29:12;17.90;96.40
22974;DHT22;11653;50.848;4.584;2024-03-02T10:31:38;17.60;96.00
22974;DHT22;11653;50.848;4.584;2024-03-02T10:34:10;17.30;97.80
22974;DHT22;11653;50.848;4.584;2024-03-02T10:36:37;17.60;97.70
22974;DHT22;11653;50.848;4.584;2024-03-02T10:39:07;17.90;96.30
22974;DHT22;11653;50.848;4.584;2024-03-02T10:41:34;18.10;96.80
22974;DHT22;11653;50.848;4.584;2024-03-02T10:44:10;17.90;96.00
22974;DHT22;11653;50.848;4.584;2024-03-02T10:46:37;17.50;97.50
22974;DHT22;11653;50.848;4.584;2024-03-02T10:49:05;18.10;97.00
22974;DHT22;11653;50.848;4.584;2024-03-02T10:51:33;18.30;95.30
22974;DHT22;11653;50.848;4.584;2024-03-02T10:54:01;18.30;95.80
22974;DHT22;11653;50.848;4.584;2024-03-02T10:56:32;17.80;96.20
22974;DHT22;11653;50.848;4.584;2024-03-02T11:01:57;18.80;95.00
22974;DHT22;11653;50.848;4.584;2024-03-02T11:04:25;19.10;93.60
22974;DHT22;11653;50.848;4.584;2024-03-02T11:07:10;18.20;94.40
22974;DHT22;11653;50.848;4.584;2024-03-02T11:10:00;17.00;97.30
22974;DHT22;11653;50.848;4.584;2024-03-02T11:12:31;16.60;97.90
22974;DHT22;11653;50.848;4.584;2024-03-02T11:15:00;16.90;98.70
22974;DHT22;11653;50.848;4.584;2024-03-02T11:17:26;16.70;99.30
22974;DHT22;11653;50.848;4.584;2024-03-02T11:19:52;16.90;98.00
22974;DHT22;11653;50.848;4.584;2024-03-02T11:22:19;17.10;97.40
22974;DHT22;11653;50.848;4.584;2024-03-02T11:24:49;17.20;97.50
22974;DHT22;11653;50.848;4.584;2024-03-02T11:33:04;15.20;99.90
22974;DHT22;11653;50.848;4.584;2024-03-02T11:35:37;15.30;99.90
22974;DHT22;11653;50.848;4.584;2024-03-02T11:38:03;15.00;99.90
22974;DHT22;11653;50.848;4.584;2024-03-02T11:40:30;14.60;99.90
22974;DHT22;11653;50.848;4.584;2024-03-02T11:43:05;14.50;99.90
22974;DHT22;11653;50.848;4.584;2024-03-02T11:45:31;15.10;99.90
22974;DHT22;11653;50.848;4.584;2024-03-02T11:47:59;15.90;99.90
22974;DHT22;11653;50.848;4.584;2024-03-02T11:50:29;16.40;99.90
22974;DHT22;11653;50.848;4.584;2024-03-02T11:52:56;16.70;99.90
22974;DHT22;11653;50.848;4.584;2024-03-02T11:55:23;17.00;99.90
22974;DHT22;11653;50.848;4.584;2024-03-02T11:57:52;17.50;99.60
22974;DHT22;11653;50.848;4.584;2024-03-02T12:00:19;17.50;98.50
22974;DHT22;11653;50.848;4.584;2024-03-02T12:02:46;17.60;99.40
22974;DHT22;11653;50.848;4.584;2024-03-02T12:05:16;17.90;99.20
22974;DHT22;11653;50.848;4.584;2024-03-02T12:07:43;17.50;98.30
22974;DHT22;11653;50.848;4.584;2024-03-02T12:10:09;16.90;99.20
22974;DHT22;11653;50.848;4.584;2024-03-02T12:12:34;16.70;99.20
22974;DHT22;11653;50.848;4.584;2024-03-02T12:15:00;16.30;99.90
22974;DHT22;11653;50.848;4.584;2024-03-02T12:17:26;15.60;99.90
22974;DHT22;11653;50.848;4.584;2024-03-02T12:19:52;15.30;99.90
22974;DHT22;11653;50.848;4.584;2024-03-02T12:22:18;15.40;99.90
22974;DHT22;11653;50.848;4.584;2024-03-02T12:24:44;15.50;99.90
22974;DHT22;11653;50.848;4.584;2024-03-02T12:27:12;15.50;99.90
22974;DHT22;11653;50.848;4.584;2024-03-02T12:29:38;15.10;99.90
22974;DHT22;11653;50.848;4.584;2024-03-02T12:32:05;15.00;99.90
22974;DHT22;11653;50.848;4.584;2024-03-02T12:34:31;15.00;99.90
22974;DHT22;11653;50.848;4.584;2024-03-02T12:36:57;15.00;99.90
22974;DHT22;11653;50.848;4.584;2024-03-02T12:39:22;14.80;99.90
22974;DHT22;11653;50.848;4.584;2024-03-02T12:41:49;14.50;99.90
22974;DHT22;11653;50.848;4.584;2024-03-02T12:44:19;14.60;99.90
22974;DHT22;11653;50.848;4.584;2024-03-02T12:46:46;14.50;99.90
22974;DHT22;11653;50.848;4.584;2024-03-02T12:49:14;14.50;99.90
22974;DHT22;11653;50.848;4.584;2024-03-02T12:51:42;14.40;99.90
22974;DHT22;11653;50.848;4.584;2024-03-02T12:54:09;14.30;99.90
22974;DHT22;11653;50.848;4.584;2024-03-02T12:56:37;14.50;99.90
22974;DHT22;11653;50.848;4.584;2024-03-02T12:59:05;14.30;99.90
22974;DHT22;11653;50.848;4.584;2024-03-02T13:01:32;14.60;99.90
22974;DHT22;11653;50.848;4.584;2024-03-02T13:03:58;15.10;99.90
22974;DHT22;11653;50.848;4.584;2024-03-02T13:06:25;15.30;99.90
22974;DHT22;11653;50.848;4.584;2024-03-02T13:08:54;16.10;99.90
22974;DHT22;11653;50.848;4.584;2024-03-02T13:11:22;17.00;99.90
22974;DHT22;11653;50.848;4.584;2024-03-02T13:13:49;17.30;99.90
22974;DHT22;11653;50.848;4.584;2024-03-02T13:16:15;17.70;99.90
22974;DHT22;11653;50.848;4.584;2024-03-02T13:18:44;17.80;99.90
22974;DHT22;11653;50.848;4.584;2024-03-02T13:21:10;17.90;99.90
22974;DHT22;11653;50.848;4.584;2024-03-02T13:23:40;17.60;99.30
22974;DHT22;11653;50.848;4.584;2024-03-02T13:26:09;16.80;99.90
22974;DHT22;11653;50.848;4.584;2024-03-02T13:28:36;16.10;99.90
22974;DHT22;11653;50.848;4.584;2024-03-02T13:31:01;15.50;99.90
22974;DHT22;11653;50.848;4.584;2024-03-02T13:33:28;15.40;99.90
22974;DHT22;11653;50.848;4.584;2024-03-02T13:35:55;15.40;99.90
22974;DHT22;11653;50.848;4.584;2024-03-02T13:38:22;15.50;99.90
22974;DHT22;11653;50.848;4.584;2024-03-02T13:40:49;15.30;99.90
22974;DHT22;11653;50.848;4.584;2024-03-02T13:43:17;15.10;99.90
22974;DHT22;11653;50.848;4.584;2024-03-02T13:45:46;14.90;99.90
22974;DHT22;11653;50.848;4.584;2024-03-02T13:48:13;14.60;99.90
22974;DHT22;11653;50.848;4.584;2024-03-02T13:50:40;14.40;99.90
22974;DHT22;11653;50.848;4.584;2024-03-02T13:53:06;14.30;99.90
22974;DHT22;11653;50.848;4.584;2024-03-02T13:55:34;14.40;99.90
22974;DHT22;11653;50.848;4.584;2024-03-02T13:58:00;14.40;99.90
22974;DHT22;11653;50.848;4.584;2024-03-02T14:00:32;14.50;99.90
22974;DHT22;11653;50.848;4.584;2024-03-02T14:02:58;14.40;99.90
22974;DHT22;11653;50.848;4.584;2024-03-02T14:05:24;14.40;99.90
22974;DHT22;11653;50.848;4.584;2024-03-02T14:07:49;14.10;99.90
22974;DHT22;11653;50.848;4.584;2024-03-02T14:10:21;14.30;99.90
22974;DHT22;11653;50.848;4.584;2024-03-02T14:12:51;14.40;99.90
22974;DHT22;11653;50.848;4.584;2024-03-02T14:15:16;14.30;99.90
22974;DHT22;11653;50.848;4.584;2024-03-02T14:17:42;14.40;99.90
22974;DHT22;11653;50.848;4.584;2024-03-02T14:20:08;14.10;99.90
22974;DHT22;11653;50.848;4.584;2024-03-02T14:22:38;14.20;99.90
22974;DHT22;11653;50.848;4.584;2024-03-02T14:25:04;14.20;99.90
22974;DHT22;11653;50.848;4.584;2024-03-02T14:27:30;14.40;99.90
22974;DHT22;11653;50.848;4.584;2024-03-02T14:29:57;14.30;99.90
22974;DHT22;11653;50.848;4.584;2024-03-02T14:32:23;14.10;99.90
22974;DHT22;11653;50.848;4.584;2024-03-02T14:34:48;14.00;99.90
22974;DHT22;11653;50.848;4.584;2024-03-02T14:37:15;14.10;99.90
22974;DHT22;11653;50.848;4.584;2024-03-02T14:39:41;14.00;99.90
22974;DHT22;11653;50.848;4.584;2024-03-02T14:42:06;14.00;99.90
22974;DHT22;11653;50.848;4.584;2024-03-02T14:44:33;14.00;99.90
22974;DHT22;11653;50.848;4.584;2024-03-02T14:47:01;14.00;99.90
22974;DHT22;11653;50.848;4.584;2024-03-02T14:49:27;14.00;99.90
22974;DHT22;11653;50.848;4.584;2024-03-02T14:51:53;14.10;99.90
22974;DHT22;11653;50.848;4.584;2024-03-02T14:54:19;14.10;99.90
22974;DHT22;11653;50.848;4.584;2024-03-02T14:56:44;14.20;99.90
22974;DHT22;11653;50.848;4.584;2024-03-02T14:59:10;14.20;99.90
22974;DHT22;11653;50.848;4.584;2024-03-02T15:01:36;14.10;99.90
22974;DHT22;11653;50.848;4.584;2024-03-02T15:04:02;14.20;99.90
22974;DHT22;11653;50.848;4.584;2024-03-02T15:06:27;14.20;99.90
22974;DHT22;11653;50.848;4.584;2024-03-02T15:08:53;14.40;99.90
22974;DHT22;11653;50.848;4.584;2024-03-02T15:11:21;14.20;99.90
22974;DHT22;11653;50.848;4.584;2024-03-02T15:13:48;14.10;99.90
22974;DHT22;11653;50.848;4.584;2024-03-02T15:16:14;14.00;99.90
22974;DHT22;11653;50.848;4.584;2024-03-02T15:18:39;13.70;99.90
22974;DHT22;11653;50.848;4.584;2024-03-02T15:21:05;13.40;99.90
22974;DHT22;11653;50.848;4.584;2024-03-02T15:23:31;13.30;99.90
22974;DHT22;11653;50.848;4.584;2024-03-02T15:25:56;13.20;99.90
22974;DHT22;11653;50.848;4.584;2024-03-02T15:28:22;13.00;99.90
22974;DHT22;11653;50.848;4.584;2024-03-02T15:30:48;13.10;99.90
22974;DHT22;11653;50.848;4.584;2024-03-02T15:33:13;13.20;99.90
22974;DHT22;11653;50.848;4.584;2024-03-02T15:35:39;13.20;99.90
22974;DHT22;11653;50.848;4.584;2024-03-02T15:38:05;13.20;99.90
22974;DHT22;11653;50.848;4.584;2024-03-02T15:40:31;13.30;99.90
22974;DHT22;11653;50.848;4.584;2024-03-02T15:42:56;13.40;99.90
22974;DHT22;11653;50.848;4.584;2024-03-02T15:45:22;13.50;99.90